Архив погоды в Александровом Гае

Метеограмма Александров Гай
Воскресенье, 23 Апреля
Время местн. Темп Ветер Видим Явления Облачность нижн/средн/верх Атм. давл. Влжн Точка росы ВНГО R Сост. почвы Tg s
Напр Скр Прв ур.ст ур.м изм
21:00 +7.4° В 1 - 10 км дождь облачно 756 758 -0.3 93% +6.4° 1 км - - - -
18:00 +10.4° Ю,Ю-З 3 - 4 км слабый непрерывный дождь облачно 756 758 -1.3 72% +5.5° 1 км - - - -
15:00 +12.7° Ю-З 5 - 10 км - облачно 757 760 -0.2 62% +5.5° 1 км - - - -
12:00 +13.6° Ю-З 7 10 10 км - преимущественно облачно 758 760 +0.1 54% +4.5° 1.5 км - - - -
09:00 +11.8° З,Ю-З 6 - 10 км - ясно 758 760 +1 68% +6.1° более 2.5 км - - - -
06:00 +4.6° Ю-З 5 - 10 км - облачно с прояснениями 757 759 +1.1 89% +2.9° - - Влажная (без луж) - -
03:00 +2.6° З,Ю-З 4 - 10 км - ясно 756 758 +0.8 89% +1° более 2.5 км - - - -
00:00 +5.8° З 5 - 10 км - ясно 755 757 +2 78% +2.3° более 2.5 км - - - -
Суббота, 22 Апреля
Время местн. Темп Ветер Видим Явления Облачность нижн/средн/верх Атм. давл. Влжн Точка росы ВНГО R Сост. почвы Tg s
Напр Скр Прв ур.ст ур.м изм
21:00 +6.9° З 5 - 10 км - облачно 753 755 +2.3 79% +3.5° - - - - -
18:00 +8.5° З 4 - 10 км - облачно с прояснениями 751 753 +0.5 67% +2.8° 1.5 км - - - -
15:00 +9.2° З 7 12 10 км дождь облачно с прояснениями 750 752 -0.8 69% +3.8° 1.5 км - - - -
12:00 +6.3° З 6 11 10 км дождь облачно 751 753 -2.2 91% +4.9° 1 км - - - -
09:00 +3.8° Ю-В 3 - 4 км слабый непрерывный дождь облачно 753 755 -2 94% +2.9° 600 м - - - -
06:00 +4.1° В,Ю-В 3 - 4 км слабый непрерывный дождь облачно 755 757 -2.1 86% +1.9° 600 м 0.7 Влажная (без луж) +4° -
03:00 +4.7° В 3 - 10 км - облачно 757 760 -2.1 79% +1.3° - - - - -
00:00 +5.1° Ю-В 2 - 10 км - облачно 761 763 -1.4 63% -1.4° - - - - -
Пятница, 21 Апреля
Время местн. Темп Ветер Видим Явления Облачность нижн/средн/верх Атм. давл. Влжн Точка росы ВНГО R Сост. почвы Tg s
Напр Скр Прв ур.ст ур.м изм
21:00 +5.1° Ю-В 2 - 10 км - облачно 761 763 -0.7 63% -1.4° - - - - -
18:00 +7.6° Ю-В 2 - 10 км - преимущественно облачно 762 764 -1.3 43% -4.3° - - - - -
15:00 +8.6° В,Ю-В 1 - 10 км - преимущественно облачно 763 765 -1.3 32% -7° более 2.5 км - - - -
12:00 +7.9° С 2 - 10 км - облачно с прояснениями 764 766 -0.9 36% -6.4° - - - - -
09:00 +4.4° С 4 - 10 км - переменная облачность 765 767 -0.2 45% -6.5° более 2.5 км - - - -
06:00 -2.4° С,С-З 3 - 10 км - ясно 765 767 +0.8 82% -5° более 2.5 км - - - -
03:00 -4.3° С-З 2 - 10 км - ясно 764 767 -0.2 87% -6.2° более 2.5 км - - - -
00:00 -2.8° З,С-З 1 - 10 км - ясно 764 767 +0.6 81% -5.6° более 2.5 км - - - -
Четверг, 20 Апреля
Время местн. Темп Ветер Видим Явления Облачность нижн/средн/верх Атм. давл. Влжн Точка росы ВНГО R Сост. почвы Tg s
Напр Скр Прв ур.ст ур.м изм
21:00 -0.1° С-З 2 - 10 км - ясно 764 766 +1.7 72% -4.5° более 2.5 км - - - -
18:00 +5.5° С-З 5 - 10 км - переменная облачность 762 764 +1.7 51% -3.7° - - - - -